Time;durP1;ratioP1;P1;durP2;ratioP2;P2;SDS_P1;SDS_P2;PMS_P1;PMS_P2;Temp;Humidity;BMP_temperature;BMP_pressure;BME280_temperature;BME280_humidity;BME280_pressure;Samples;Min_cycle;Max_cycle;Signal;HPM_P1;HPM_P2
2022/03/07 00:00:27;;;;;;;;;;;;;;;-1.83;72.00;100611.06;5623847;31;35570;-84
2022/03/07 00:03:33;;;;;;;;;;;;;;;-1.69;71.01;100619.22;5613233;31;35604;-84
2022/03/07 00:06:35;;;;;;;;;;;;;;;-1.71;71.38;100610.63;5625021;31;35020;-84
2022/03/07 00:09:38;;;;;;;;;;;;;;;-1.86;72.22;100612.88;5623891;31;34674;-84
2022/03/07 00:12:43;;;;;;;;;;;;;;;-1.89;72.31;100613.00;5624524;31;34212;-84
2022/03/07 00:15:46;;;;;;;;;;;;;;;-1.88;72.82;100617.28;5623693;31;35385;-85
2022/03/07 00:18:48;;;;;;;;;;;;;;;-1.63;70.75;100610.37;5623205;31;34486;-84
2022/03/07 00:21:52;;;;;;;;;;;;;;;-1.66;71.16;100613.94;5624593;31;35796;-85
2022/03/07 00:24:54;;;;;;;;;;;;;;;-1.71;71.57;100610.63;5624152;31;35475;-85
2022/03/07 00:27:58;;;;;;;;;;;;;;;-1.75;71.46;100614.28;5623156;31;34602;-85
2022/03/07 00:31:00;;;;;;;;;;;;;;;-1.76;72.24;100620.34;5624847;31;35483;-85
2022/03/07 00:34:03;;;;;;;;;;;;;;;-1.76;71.57;100620.34;5623741;31;34909;-85
2022/03/07 00:37:09;;;;;;;;;;;;;;;-1.72;71.50;100617.59;5624239;31;34312;-85
2022/03/07 00:40:12;;;;;;;;;;;;;;;-1.74;71.90;100615.94;5626908;31;34812;-84
2022/03/07 00:43:15;;;;;;;;;;;;;;;-1.65;71.65;100615.63;5625208;31;34279;-85
2022/03/07 00:46:18;;;;;;;;;;;;;;;-1.76;72.17;100616.00;5624183;31;35029;-85
2022/03/07 00:49:23;;;;;;;;;;;;;;;-1.70;71.71;100620.13;5624761;31;34375;-84
2022/03/07 00:52:27;;;;;;;;;;;;;;;-1.66;71.37;100626.03;5611596;31;34946;-84
2022/03/07 00:55:31;;;;;;;;;;;;;;;-1.58;72.41;100630.06;5624956;31;35043;-84
2022/03/07 00:58:34;;;;;;;;;;;;;;;-1.52;72.18;100630.75;5624471;31;35611;-84
2022/03/07 01:01:36;;;;;;;;;;;;;;;-1.61;72.46;100637.94;5624993;31;35404;-84
2022/03/07 01:04:39;;;;;;;;;;;;;;;-1.65;72.57;100636.38;5624849;31;35562;-84
2022/03/07 01:07:43;;;;;;;;;;;;;;;-1.69;71.63;100628.75;5623467;31;35506;-85
2022/03/07 01:10:47;;;;;;;;;;;;;;;-1.49;70.49;100621.09;5623902;31;34575;-84
2022/03/07 01:13:52;;;;;;;;;;;;;;;-1.38;69.60;100631.06;5623674;31;34726;-85
2022/03/07 01:16:57;;;;;;;;;;;;;;;-1.46;69.90;100635.72;5623278;31;34680;-85
2022/03/07 01:20:01;;;;;;;;;;;;;;;-1.47;70.15;100639.19;5623248;31;35385;-85
2022/03/07 01:23:03;;;;;;;;;;;;;;;-1.44;70.48;100639.94;5623275;31;34816;-85
2022/03/07 01:26:09;;;;;;;;;;;;;;;-1.60;70.83;100629.25;5622628;31;34414;-84
2022/03/07 01:29:15;;;;;;;;;;;;;;;-1.65;71.53;100626.00;5624319;31;36475;-85
2022/03/07 01:32:18;;;;;;;;;;;;;;;-1.71;72.38;100626.22;5623533;31;35390;-84
2022/03/07 01:35:21;;;;;;;;;;;;;;;-1.56;71.17;100630.84;5623564;31;34048;-85
2022/03/07 01:38:26;;;;;;;;;;;;;;;-1.71;72.34;100629.66;5623503;31;35294;-84
2022/03/07 01:41:30;;;;;;;;;;;;;;;-1.71;71.36;100616.69;5623669;31;34465;-84
2022/03/07 01:44:34;;;;;;;;;;;;;;;-1.80;72.06;100622.19;5624287;31;35037;-84
2022/03/07 01:47:36;;;;;;;;;;;;;;;-1.87;73.06;100616.41;5624132;31;34418;-85
2022/03/07 01:50:39;;;;;;;;;;;;;;;-1.65;71.28;100626.00;5624580;31;34776;-84
2022/03/07 01:53:43;;;;;;;;;;;;;;;-1.93;73.70;100626.97;5623925;31;34801;-84
2022/03/07 01:56:48;;;;;;;;;;;;;;;-1.98;73.46;100628.88;5623771;31;35469;-85
2022/03/07 02:00:07;;;;;;;;;;;;;;;-1.89;72.92;100628.56;5615133;31;35243;-84
2022/03/07 02:03:14;;;;;;;;;;;;;;;-1.79;72.02;100625.62;5621818;31;35453;-84
2022/03/07 02:06:18;;;;;;;;;;;;;;;-1.92;72.53;100631.25;5623563;31;34466;-85
2022/03/07 02:09:25;;;;;;;;;;;;;;;-2.06;73.40;100636.91;5624360;31;34730;-84
2022/03/07 02:12:32;;;;;;;;;;;;;;;-2.08;74.71;100630.06;5624008;31;35673;-85
2022/03/07 02:15:35;;;;;;;;;;;;;;;-2.17;75.01;100626.91;5623908;31;36374;-84
2022/03/07 02:18:41;;;;;;;;;;;;;;;-2.24;74.18;100628.00;5623791;31;35623;-84
2022/03/07 02:21:46;;;;;;;;;;;;;;;-2.23;74.78;100618.47;5623708;31;34087;-84
2022/03/07 02:24:49;;;;;;;;;;;;;;;-2.28;74.74;100620.41;5623813;31;35378;-84
2022/03/07 02:27:55;;;;;;;;;;;;;;;-2.33;74.72;100615.38;5624060;31;35080;-84
2022/03/07 02:30:57;;;;;;;;;;;;;;;-2.36;75.17;100618.06;5623591;31;35037;-84
2022/03/07 02:34:00;;;;;;;;;;;;;;;-2.44;75.30;100622.66;5622989;31;34896;-85
2022/03/07 02:37:05;;;;;;;;;;;;;;;-2.49;75.60;100613.28;5623275;31;34392;-84
2022/03/07 02:40:11;;;;;;;;;;;;;;;-2.45;75.79;100613.19;5623614;31;35505;-84
2022/03/07 02:43:35;;;;;;;;;;;;;;;-2.44;75.63;100612.28;5623527;31;34547;-85
2022/03/07 02:46:37;;;;;;;;;;;;;;;-2.50;75.33;100618.50;5622846;31;34685;-85
2022/03/07 02:49:41;;;;;;;;;;;;;;;-2.41;75.61;100614.75;5623560;31;34608;-84
2022/03/07 02:52:44;;;;;;;;;;;;;;;-2.50;75.54;100611.56;5622560;31;35045;-84
2022/03/07 02:55:47;;;;;;;;;;;;;;;-2.63;76.02;100612.84;5623542;31;35477;-84
2022/03/07 02:58:50;;;;;;;;;;;;;;;-2.62;75.95;100627.50;5623227;31;36735;-86
2022/03/07 03:01:52;;;;;;;;;;;;;;;-2.77;76.50;100628.00;5623336;31;35486;-84
2022/03/07 03:04:55;;;;;;;;;;;;;;;-2.73;76.74;100622.69;5623743;31;35678;-85
2022/03/07 03:07:59;;;;;;;;;;;;;;;-2.64;75.61;100624.13;5614975;31;33886;-85
2022/03/07 03:11:02;;;;;;;;;;;;;;;-2.83;77.21;100627.28;5604831;31;34590;-84
2022/03/07 03:14:06;;;;;;;;;;;;;;;-2.87;77.07;100628.28;5624242;31;34328;-84
2022/03/07 03:17:09;;;;;;;;;;;;;;;-2.93;77.02;100631.06;5623994;31;34740;-84
2022/03/07 03:20:13;;;;;;;;;;;;;;;-2.80;76.29;100628.94;5623355;31;34518;-84
2022/03/07 03:23:19;;;;;;;;;;;;;;;-3.01;77.46;100630.47;5622998;31;35144;-84
2022/03/07 03:26:23;;;;;;;;;;;;;;;-3.13;78.47;100636.84;5622618;31;35366;-84
2022/03/07 03:29:25;;;;;;;;;;;;;;;-3.24;78.78;100644.06;5622321;31;35061;-84
2022/03/07 03:32:31;;;;;;;;;;;;;;;-3.16;79.00;100637.78;5623252;31;35562;-84
2022/03/07 03:35:36;;;;;;;;;;;;;;;-3.10;78.65;100642.75;5623418;31;34833;-85
2022/03/07 03:38:39;;;;;;;;;;;;;;;-3.02;79.35;100644.28;5622420;31;36496;-85
2022/03/07 03:41:43;;;;;;;;;;;;;;;-2.81;77.55;100647.94;5621979;31;35481;-85
2022/03/07 03:44:46;;;;;;;;;;;;;;;-2.65;76.65;100648.34;5622352;31;35023;-85
2022/03/07 03:47:51;;;;;;;;;;;;;;;-2.57;76.33;100653.25;5621705;31;34888;-85
2022/03/07 03:50:54;;;;;;;;;;;;;;;-2.60;76.02;100643.84;5622721;31;34417;-84
2022/03/07 03:53:56;;;;;;;;;;;;;;;-2.72;76.87;100647.69;5622583;31;34534;-84
2022/03/07 03:56:59;;;;;;;;;;;;;;;-2.82;77.42;100652.31;5622113;31;35850;-84
2022/03/07 04:00:09;;;;;;;;;;;;;;;-2.86;77.86;100650.69;5621366;31;33588;-84
2022/03/07 04:03:13;;;;;;;;;;;;;;;-2.65;76.20;100648.34;5623130;31;35115;-84
2022/03/07 04:06:19;;;;;;;;;;;;;;;-2.74;76.38;100646.87;5623551;31;35140;-84
2022/03/07 04:09:22;;;;;;;;;;;;;;;-2.88;77.56;100651.63;5622562;31;34448;-85
2022/03/07 04:12:25;;;;;;;;;;;;;;;-2.98;77.81;100636.38;5622894;31;34368;-84
2022/03/07 04:15:27;;;;;;;;;;;;;;;-2.93;77.69;100648.34;5621107;31;34463;-84
2022/03/07 04:18:33;;;;;;;;;;;;;;;-3.04;77.74;100648.66;5611149;31;35470;-84
2022/03/07 04:21:36;;;;;;;;;;;;;;;-3.10;78.73;100639.34;5622527;31;34905;-84
2022/03/07 04:24:41;;;;;;;;;;;;;;;-3.18;79.23;100639.56;5622524;31;35558;-84
2022/03/07 04:27:43;;;;;;;;;;;;;;;-3.36;79.31;100640.09;5622620;31;34205;-84
2022/03/07 04:30:49;;;;;;;;;;;;;;;-3.49;80.29;100645.62;5623305;31;34559;-84
2022/03/07 04:33:52;;;;;;;;;;;;;;;-3.39;80.45;100650.53;5623213;31;34083;-84
2022/03/07 04:36:59;;;;;;;;;;;;;;;-3.45;80.36;100646.38;5623396;31;34836;-84
2022/03/07 04:40:03;;;;;;;;;;;;;;;-3.38;80.48;100654.81;5623570;31;35551;-85
2022/03/07 04:43:06;;;;;;;;;;;;;;;-3.40;80.65;100654.88;5623700;31;34664;-84
2022/03/07 04:46:09;;;;;;;;;;;;;;;-3.31;80.46;100652.00;5623269;31;35490;-84
2022/03/07 04:49:15;;;;;;;;;;;;;;;-3.38;80.59;100642.75;5623364;31;34167;-84
2022/03/07 04:52:17;;;;;;;;;;;;;;;-3.44;80.81;100646.34;5623301;31;34969;-85
2022/03/07 04:55:26;;;;;;;;;;;;;;;-3.37;81.47;100652.19;5623439;31;34285;-84
2022/03/07 04:58:29;;;;;;;;;;;;;;;-3.33;81.29;100640.84;5611916;31;35393;-85
2022/03/07 05:01:32;;;;;;;;;;;;;;;-3.33;81.14;100655.53;5623503;31;34714;-85
2022/03/07 05:04:34;;;;;;;;;;;;;;;-3.28;81.34;100653.66;5623449;31;34591;-86
2022/03/07 05:07:40;;;;;;;;;;;;;;;-3.08;80.74;100649.63;5623717;31;34497;-85
2022/03/07 05:10:43;;;;;;;;;;;;;;;-3.21;81.18;100647.44;5623052;31;34534;-85
2022/03/07 05:13:46;;;;;;;;;;;;;;;-3.21;81.74;100646.56;5622637;31;34615;-86
2022/03/07 05:16:49;;;;;;;;;;;;;;;-3.28;82.41;100651.06;5623222;31;35553;-85
2022/03/07 05:19:52;;;;;;;;;;;;;;;-3.31;82.89;100654.59;5623243;31;34773;-86
2022/03/07 05:22:55;;;;;;;;;;;;;;;-3.32;83.02;100647.72;5623026;31;34642;-85
2022/03/07 05:25:57;;;;;;;;;;;;;;;-3.28;82.80;100648.47;5620557;31;35418;-85
2022/03/07 05:29:00;;;;;;;;;;;;;;;-3.19;83.38;100652.56;5623346;31;34879;-85
2022/03/07 05:32:03;;;;;;;;;;;;;;;-3.18;82.02;100655.09;5622991;31;34765;-85
2022/03/07 05:35:06;;;;;;;;;;;;;;;-3.15;81.85;100646.38;5622826;31;34357;-85
2022/03/07 05:38:09;;;;;;;;;;;;;;;-3.12;82.74;100654.94;5622739;31;35394;-85
2022/03/07 05:41:14;;;;;;;;;;;;;;;-3.10;82.56;100652.28;5623348;31;35660;-86
2022/03/07 05:44:17;;;;;;;;;;;;;;;-2.94;82.02;100660.44;5623516;31;36144;-85
2022/03/07 05:47:19;;;;;;;;;;;;;;;-2.86;80.59;100649.84;5623624;31;35258;-84
2022/03/07 05:50:23;;;;;;;;;;;;;;;-2.81;80.65;100654.00;5624897;31;35571;-85
2022/03/07 05:53:25;;;;;;;;;;;;;;;-2.69;79.32;100651.94;5623003;31;35420;-85
2022/03/07 05:56:28;;;;;;;;;;;;;;;-2.62;79.21;100658.59;5623544;31;34051;-85
2022/03/07 05:59:31;;;;;;;;;;;;;;;-2.63;78.33;100662.06;5622252;31;34468;-85
2022/03/07 06:02:37;;;;;;;;;;;;;;;-2.42;76.74;100660.56;5622506;31;36748;-85
2022/03/07 06:05:40;;;;;;;;;;;;;;;-2.43;77.13;100658.03;5623435;31;34367;-85
2022/03/07 06:08:42;;;;;;;;;;;;;;;-2.39;77.89;100659.59;5622557;31;34821;-86
2022/03/07 06:11:48;;;;;;;;;;;;;;;-2.28;76.74;100657.50;5608433;31;35077;-86
2022/03/07 06:14:51;;;;;;;;;;;;;;;-2.15;77.54;100662.31;5622008;31;35270;-85
2022/03/07 06:17:58;;;;;;;;;;;;;;;-2.02;76.34;100669.59;5622566;31;35421;-85
2022/03/07 06:21:00;;;;;;;;;;;;;;;-1.89;74.80;100670.06;5614646;31;34825;-85
2022/03/07 06:24:05;;;;;;;;;;;;;;;-1.68;73.90;100667.63;5618587;31;34420;-86
2022/03/07 06:27:08;;;;;;;;;;;;;;;-1.58;73.73;100684.56;5621086;31;34872;-85
2022/03/07 06:30:11;;;;;;;;;;;;;;;-1.71;73.97;100683.28;5622760;31;35248;-86
2022/03/07 06:33:15;;;;;;;;;;;;;;;-1.59;73.05;100682.84;5623492;31;34677;-85
2022/03/07 06:36:18;;;;;;;;;;;;;;;-1.55;73.19;100675.81;5622667;31;34672;-86
2022/03/07 06:39:25;;;;;;;;;;;;;;;-1.44;73.05;100680.63;5621651;31;35534;-86
2022/03/07 06:42:28;;;;;;;;;;;;;;;-1.17;71.41;100673.59;5622662;31;35412;-85
2022/03/07 06:45:31;;;;;;;;;;;;;;;-1.08;71.71;100672.41;5622397;31;35449;-85
2022/03/07 06:48:36;;;;;;;;;;;;;;;-0.91;70.08;100684.75;5622869;31;32780;-85
2022/03/07 06:51:39;;;;;;;;;;;;;;;-1.13;70.32;100685.56;5621382;31;35058;-85
2022/03/07 06:54:43;;;;;;;;;;;;;;;-0.85;69.87;100689.69;5622217;31;33801;-85
2022/03/07 06:57:46;;;;;;;;;;;;;;;-0.53;68.63;100691.97;5622503;31;34584;-85
2022/03/07 07:00:51;;;;;;;;;;;;;;;-0.64;68.02;100695.84;5621725;31;34338;-85
2022/03/07 07:03:54;;;;;;;;;;;;;;;-0.59;68.85;100695.66;5622301;31;34066;-85
2022/03/07 07:06:57;;;;;;;;;;;;;;;-0.47;66.79;100694.31;5622219;31;34566;-85
2022/03/07 07:10:07;;;;;;;;;;;;;;;-0.37;66.51;100689.59;5622081;31;34071;-86
2022/03/07 07:13:14;;;;;;;;;;;;;;;-0.25;65.92;100683.03;5621783;31;36740;-85
2022/03/07 07:16:17;;;;;;;;;;;;;;;0.06;65.39;100692.19;5622392;31;35075;-86
2022/03/07 07:19:28;;;;;;;;;;;;;;;-0.16;65.94;100693.06;5622779;31;34326;-86
2022/03/07 07:22:30;;;;;;;;;;;;;;;-0.39;66.13;100684.44;5622612;31;35381;-84
2022/03/07 07:25:34;;;;;;;;;;;;;;;-0.24;66.28;100695.16;5622783;31;34360;-84
2022/03/07 07:28:37;;;;;;;;;;;;;;;0.19;65.34;100695.97;5619255;31;34651;-84
2022/03/07 07:31:42;;;;;;;;;;;;;;;0.35;64.49;100703.12;5613737;31;34986;-85
2022/03/07 07:34:45;;;;;;;;;;;;;;;0.42;63.84;100704.56;5621484;31;34179;-85
2022/03/07 07:37:48;;;;;;;;;;;;;;;0.37;65.47;100711.72;5625172;31;34504;-85
2022/03/07 07:40:55;;;;;;;;;;;;;;;0.70;63.14;100706.78;5626026;31;35355;-85
2022/03/07 07:43:58;;;;;;;;;;;;;;;0.68;64.00;100705.19;5625114;31;35086;-85
2022/03/07 07:47:01;;;;;;;;;;;;;;;0.35;63.97;100710.94;5624862;31;34502;-86
2022/03/07 07:50:05;;;;;;;;;;;;;;;0.56;63.81;100712.63;5624463;31;35249;-85
2022/03/07 07:53:07;;;;;;;;;;;;;;;0.78;62.36;100709.06;5625155;31;35367;-84
2022/03/07 07:56:10;;;;;;;;;;;;;;;0.90;61.13;100716.34;5624974;31;35555;-84
2022/03/07 07:59:13;;;;;;;;;;;;;;;1.05;61.22;100724.38;5624725;31;35040;-84
2022/03/07 08:02:15;;;;;;;;;;;;;;;1.02;61.26;100732.34;5624470;31;36434;-84
2022/03/07 08:05:22;;;;;;;;;;;;;;;0.81;61.89;100742.81;5625561;31;35072;-84
2022/03/07 08:08:24;;;;;;;;;;;;;;;0.67;61.96;100750.38;5625674;31;35316;-84
2022/03/07 08:11:29;;;;;;;;;;;;;;;0.14;63.73;100747.38;5625889;31;35374;-85
2022/03/07 08:14:32;;;;;;;;;;;;;;;0.40;64.23;100753.22;5624978;31;34519;-84
2022/03/07 08:17:35;;;;;;;;;;;;;;;0.51;63.44;100756.22;5624640;31;35338;-85
2022/03/07 08:20:38;;;;;;;;;;;;;;;0.57;62.35;100761.19;5624620;31;35515;-84
2022/03/07 08:23:41;;;;;;;;;;;;;;;0.36;63.78;100751.69;5612839;31;34777;-84
2022/03/07 08:26:45;;;;;;;;;;;;;;;0.48;63.06;100752.91;5625295;31;35446;-84
2022/03/07 08:29:48;;;;;;;;;;;;;;;0.59;62.34;100743.75;5625436;31;35523;-84
2022/03/07 08:32:54;;;;;;;;;;;;;;;0.75;62.55;100728.28;5623558;31;35149;-84
2022/03/07 08:35:57;;;;;;;;;;;;;;;0.90;63.30;100726.75;5624422;31;34402;-84
2022/03/07 08:39:00;;;;;;;;;;;;;;;1.08;61.70;100729.44;5624392;31;35198;-85
2022/03/07 08:42:03;;;;;;;;;;;;;;;1.47;60.22;100720.69;5624554;31;35238;-84
2022/03/07 08:45:07;;;;;;;;;;;;;;;1.87;59.25;100727.53;5625360;31;35588;-84
2022/03/07 08:48:09;;;;;;;;;;;;;;;1.54;59.27;100726.47;5624929;31;35394;-84
2022/03/07 08:51:12;;;;;;;;;;;;;;;1.40;60.34;100721.91;5625692;31;35294;-84
2022/03/07 08:54:17;;;;;;;;;;;;;;;1.39;60.68;100735.87;5613945;31;35377;-84
2022/03/07 08:57:19;;;;;;;;;;;;;;;2.11;58.09;100747.19;5624499;31;35379;-84
2022/03/07 09:00:22;;;;;;;;;;;;;;;1.77;57.44;100735.78;5625334;31;34479;-84
2022/03/07 09:03:25;;;;;;;;;;;;;;;1.67;59.06;100738.03;5624296;31;35597;-85
2022/03/07 09:06:28;;;;;;;;;;;;;;;2.18;56.59;100739.09;5624959;31;33944;-84
2022/03/07 09:09:32;;;;;;;;;;;;;;;2.15;56.92;100727.00;5625937;31;35390;-85
2022/03/07 09:12:36;;;;;;;;;;;;;;;2.20;56.69;100721.56;5625928;31;34591;-85
2022/03/07 09:15:45;;;;;;;;;;;;;;;2.15;56.75;100724.41;5624862;31;34618;-85
2022/03/07 09:18:48;;;;;;;;;;;;;;;1.90;57.29;100727.38;5624394;31;34751;-86
2022/03/07 09:21:51;;;;;;;;;;;;;;;2.35;55.99;100719.97;5624017;31;34494;-85
2022/03/07 09:24:53;;;;;;;;;;;;;;;2.51;56.19;100717.41;5623963;31;35462;-85
2022/03/07 09:27:56;;;;;;;;;;;;;;;2.51;55.82;100722.63;5623813;31;34705;-85
2022/03/07 09:31:02;;;;;;;;;;;;;;;3.04;54.96;100721.56;5622778;31;33984;-85
2022/03/07 09:34:04;;;;;;;;;;;;;;;2.60;54.83;100724.75;5620942;31;35800;-86
2022/03/07 09:37:15;;;;;;;;;;;;;;;2.55;56.21;100725.00;5620658;31;34558;-85
2022/03/07 09:40:17;;;;;;;;;;;;;;;3.15;54.04;100714.91;5622472;31;33840;-85
2022/03/07 09:43:21;;;;;;;;;;;;;;;3.36;52.73;100721.59;5621018;31;34399;-85
2022/03/07 09:46:23;;;;;;;;;;;;;;;3.65;53.77;100718.28;5620780;31;35324;-85
2022/03/07 09:49:27;;;;;;;;;;;;;;;3.26;53.03;100720.41;5623639;31;34418;-85
2022/03/07 09:52:30;;;;;;;;;;;;;;;3.47;52.80;100722.75;5624069;31;34477;-85
2022/03/07 09:55:35;;;;;;;;;;;;;;;3.05;54.89;100717.16;5621722;31;34049;-85
2022/03/07 09:58:38;;;;;;;;;;;;;;;3.46;53.85;100713.22;5618491;31;35426;-86
2022/03/07 10:01:57;;;;;;;;;;;;;;;3.51;52.64;100708.59;5620416;31;34503;-85
2022/03/07 10:05:04;;;;;;;;;;;;;;;3.39;53.88;100716.19;5617634;31;35627;-86
2022/03/07 10:08:07;;;;;;;;;;;;;;;3.32;52.29;100720.06;5619093;31;34508;-86
2022/03/07 10:11:10;;;;;;;;;;;;;;;2.33;54.33;100720.00;5619965;31;34380;-86
2022/03/07 10:14:16;;;;;;;;;;;;;;;2.31;55.01;100719.25;5621349;31;34692;-85
2022/03/07 10:17:26;;;;;;;;;;;;;;;2.37;54.66;100726.78;5619602;31;34676;-85
2022/03/07 10:20:29;;;;;;;;;;;;;;;2.24;55.11;100729.19;5620908;31;34789;-85
2022/03/07 10:23:32;;;;;;;;;;;;;;;2.45;54.47;100719.41;5621171;31;36007;-86
2022/03/07 10:26:37;;;;;;;;;;;;;;;2.56;53.92;100718.00;5621704;31;34594;-86
2022/03/07 10:29:47;;;;;;;;;;;;;;;2.60;53.94;100711.69;5621777;31;34499;-86
2022/03/07 10:32:57;;;;;;;;;;;;;;;2.11;54.82;100721.09;5620490;31;34665;-85
2022/03/07 10:36:00;;;;;;;;;;;;;;;2.34;54.65;100710.44;5621801;31;34650;-85
2022/03/07 10:39:07;;;;;;;;;;;;;;;2.45;54.29;100714.16;5621351;31;34231;-85
2022/03/07 10:42:18;;;;;;;;;;;;;;;2.53;53.84;100707.72;5621626;31;34001;-85
2022/03/07 10:45:22;;;;;;;;;;;;;;;2.23;55.40;100703.12;5621968;31;36112;-86
2022/03/07 10:48:28;;;;;;;;;;;;;;;2.21;54.51;100705.81;5621418;31;35451;-85
2022/03/07 10:51:32;;;;;;;;;;;;;;;2.38;54.99;100701.50;5622202;31;34640;-86
2022/03/07 10:54:37;;;;;;;;;;;;;;;2.40;54.35;100703.12;5622056;31;35472;-85
2022/03/07 10:57:41;;;;;;;;;;;;;;;2.16;55.75;100686.94;5622650;31;35544;-85
2022/03/07 11:00:49;;;;;;;;;;;;;;;2.35;55.25;100686.00;5621464;31;34642;-85
2022/03/07 11:03:54;;;;;;;;;;;;;;;2.37;54.67;100679.78;5622603;31;35003;-86
2022/03/07 11:07:00;;;;;;;;;;;;;;;2.88;53.38;100678.88;5624119;31;34831;-85
2022/03/07 11:10:07;;;;;;;;;;;;;;;2.29;54.17;100671.50;5619591;31;35549;-86
2022/03/07 11:13:10;;;;;;;;;;;;;;;2.29;54.03;100666.28;5618797;31;33919;-85
2022/03/07 11:16:13;;;;;;;;;;;;;;;2.51;54.07;100659.94;5609644;31;35045;-86
2022/03/07 11:19:21;;;;;;;;;;;;;;;2.75;53.76;100653.44;5620203;31;35510;-86
2022/03/07 11:22:24;;;;;;;;;;;;;;;3.17;51.83;100655.53;5621372;31;35498;-86
2022/03/07 11:25:28;;;;;;;;;;;;;;;3.36;51.16;100648.34;5620956;31;35170;-86
2022/03/07 11:28:31;;;;;;;;;;;;;;;3.32;51.31;100636.38;5621309;31;34777;-87
2022/03/07 11:31:38;;;;;;;;;;;;;;;3.60;51.01;100642.66;5619942;31;34648;-86
2022/03/07 11:35:11;;;;;;;;;;;;;;;3.71;49.95;100636.81;5620319;31;34546;-86
2022/03/07 11:38:15;;;;;;;;;;;;;;;3.47;50.59;100633.81;5606523;31;34791;-86
2022/03/07 11:41:37;;;;;;;;;;;;;;;2.52;52.04;100627.69;5620846;31;34826;-85
2022/03/07 11:44:42;;;;;;;;;;;;;;;2.46;53.34;100610.56;5619241;31;36320;-86
2022/03/07 11:47:48;;;;;;;;;;;;;;;2.88;52.47;100610.91;5617023;31;35531;-87
2022/03/07 11:50:51;;;;;;;;;;;;;;;3.01;51.71;100609.31;5619198;31;36189;-86
2022/03/07 11:53:56;;;;;;;;;;;;;;;2.79;52.73;100607.06;5618570;31;35425;-86
2022/03/07 11:57:07;;;;;;;;;;;;;;;3.05;51.73;100618.69;5619481;31;34653;-87
2022/03/07 12:00:12;;;;;;;;;;;;;;;2.65;52.45;100620.84;5616035;31;34463;-86
2022/03/07 12:03:16;;;;;;;;;;;;;;;2.42;53.41;100619.47;5616069;31;34032;-86
2022/03/07 12:06:21;;;;;;;;;;;;;;;2.60;53.02;100615.88;5619642;31;33997;-86
2022/03/07 12:09:32;;;;;;;;;;;;;;;2.65;53.14;100615.63;5618963;31;35162;-86
2022/03/07 12:12:39;;;;;;;;;;;;;;;2.48;52.76;100608.69;5620328;31;34399;-86
2022/03/07 12:16:03;;;;;;;;;;;;;;;2.32;53.52;100619.09;5619395;31;34624;-86
2022/03/07 12:19:06;;;;;;;;;;;;;;;2.33;53.59;100610.34;5619656;31;34125;-86
2022/03/07 12:22:14;;;;;;;;;;;;;;;2.09;54.02;100602.87;5619168;31;33766;-85
2022/03/07 12:25:18;;;;;;;;;;;;;;;2.28;53.30;100607.16;5620563;31;35423;-86
2022/03/07 12:28:21;;;;;;;;;;;;;;;1.97;54.60;100603.53;5623084;31;34346;-85
2022/03/07 12:31:24;;;;;;;;;;;;;;;1.94;55.30;100603.69;5623263;31;35460;-86
2022/03/07 12:34:29;;;;;;;;;;;;;;;2.12;53.94;100597.50;5622155;31;35581;-86
2022/03/07 12:37:37;;;;;;;;;;;;;;;1.85;54.75;100600.63;5620987;31;35315;-86
2022/03/07 12:40:40;;;;;;;;;;;;;;;1.87;54.53;100597.06;5622004;31;34800;-86
2022/03/07 12:43:43;;;;;;;;;;;;;;;2.11;53.84;100594.97;5621501;31;34566;-86
2022/03/07 12:46:49;;;;;;;;;;;;;;;1.53;54.77;100600.44;5621580;31;34237;-86
2022/03/07 12:49:52;;;;;;;;;;;;;;;1.43;55.68;100599.19;5621254;31;35195;-86
2022/03/07 12:52:55;;;;;;;;;;;;;;;1.42;56.25;100613.16;5622256;31;34586;-86
2022/03/07 12:56:01;;;;;;;;;;;;;;;1.22;56.44;100606.31;5623892;31;35472;-85
2022/03/07 12:59:06;;;;;;;;;;;;;;;1.48;56.03;100602.44;5623643;31;34381;-85
2022/03/07 13:02:08;;;;;;;;;;;;;;;1.41;55.75;100611.47;5623103;31;35091;-85
2022/03/07 13:05:13;;;;;;;;;;;;;;;1.34;55.96;100608.34;5623347;31;35416;-86
2022/03/07 13:08:15;;;;;;;;;;;;;;;1.12;55.94;100600.69;5622622;31;35035;-86
2022/03/07 13:11:40;;;;;;;;;;;;;;;1.16;56.25;100607.47;5623857;31;35715;-85
2022/03/07 13:14:45;;;;;;;;;;;;;;;1.17;56.54;100603.94;5620833;31;34747;-85
2022/03/07 13:18:03;;;;;;;;;;;;;;;1.15;56.58;100603.16;5619399;31;35507;-85
2022/03/07 13:21:06;;;;;;;;;;;;;;;1.17;57.39;100603.06;5623484;31;35441;-86
2022/03/07 13:24:09;;;;;;;;;;;;;;;1.23;57.24;100608.84;5623433;31;35341;-85
2022/03/07 13:27:13;;;;;;;;;;;;;;;1.34;56.27;100605.72;5623633;31;35693;-85
2022/03/07 13:30:16;;;;;;;;;;;;;;;1.43;56.33;100603.59;5623804;31;35127;-86
2022/03/07 13:33:20;;;;;;;;;;;;;;;1.42;56.48;100613.16;5623859;31;34471;-86
2022/03/07 13:36:42;;;;;;;;;;;;;;;1.54;55.97;100607.34;5623062;31;34218;-85
2022/03/07 13:39:56;;;;;;;;;;;;;;;1.37;57.02;100610.78;5624072;31;34290;-86
2022/03/07 13:43:00;;;;;;;;;;;;;;;1.42;55.79;100607.94;5625255;31;34664;-86
2022/03/07 13:46:12;;;;;;;;;;;;;;;1.42;55.60;100618.38;5625450;31;35504;-86
2022/03/07 13:49:17;;;;;;;;;;;;;;;1.37;56.06;100609.94;5623876;31;35478;-86
2022/03/07 13:52:19;;;;;;;;;;;;;;;1.50;54.78;100616.25;5625383;31;34479;-86
2022/03/07 13:55:23;;;;;;;;;;;;;;;1.50;55.80;100611.03;5622171;31;34570;-87
2022/03/07 13:58:33;;;;;;;;;;;;;;;1.30;55.18;100614.59;5623283;31;34803;-86
2022/03/07 14:01:36;;;;;;;;;;;;;;;1.38;55.93;100615.06;5623421;31;34852;-86
2022/03/07 14:04:49;;;;;;;;;;;;;;;1.48;55.93;100617.22;5623575;31;34508;-86
2022/03/07 14:07:55;;;;;;;;;;;;;;;1.49;55.86;100622.38;5624093;31;36638;-85
2022/03/07 14:11:18;;;;;;;;;;;;;;;1.39;56.04;100618.53;5622339;31;34643;-87
2022/03/07 14:14:20;;;;;;;;;;;;;;;1.48;54.69;100615.47;5623131;31;35678;-86
2022/03/07 14:17:25;;;;;;;;;;;;;;;1.64;54.27;100610.34;5610139;31;35466;-86
2022/03/07 14:20:28;;;;;;;;;;;;;;;1.50;55.17;100608.44;5621893;31;35104;-86
2022/03/07 14:23:32;;;;;;;;;;;;;;;1.57;54.97;100610.72;5623210;31;34988;-86
2022/03/07 14:26:36;;;;;;;;;;;;;;;1.62;55.95;100603.53;5622463;31;34235;-86
2022/03/07 14:29:43;;;;;;;;;;;;;;;1.60;55.86;100611.41;5621713;31;34361;-86
2022/03/07 14:32:45;;;;;;;;;;;;;;;1.77;55.05;100612.34;5627818;31;34651;-86
2022/03/07 14:35:59;;;;;;;;;;;;;;;1.85;54.71;100611.06;5641726;31;34122;-86
2022/03/07 14:39:04;;;;;;;;;;;;;;;1.98;53.88;100605.19;5641741;31;35271;-85
2022/03/07 14:42:08;;;;;;;;;;;;;;;1.57;56.31;100605.50;5641313;31;34667;-85
2022/03/07 14:45:11;;;;;;;;;;;;;;;1.73;56.52;100603.84;5644024;31;34893;-85
2022/03/07 14:48:13;;;;;;;;;;;;;;;1.92;55.13;100608.12;5639911;31;34393;-85
2022/03/07 14:51:18;;;;;;;;;;;;;;;1.89;55.02;100600.44;5630999;31;34664;-85
2022/03/07 14:54:21;;;;;;;;;;;;;;;2.09;54.05;100610.69;5622007;31;34613;-85
2022/03/07 14:57:24;;;;;;;;;;;;;;;2.21;52.88;100595.31;5621440;31;35199;-85
2022/03/07 15:00:27;;;;;;;;;;;;;;;2.12;54.34;100601.88;5621146;31;35382;-86
2022/03/07 15:03:29;;;;;;;;;;;;;;;2.36;53.25;100604.16;5617948;31;35530;-86
2022/03/07 15:06:37;;;;;;;;;;;;;;;2.41;52.37;100608.19;5618588;31;34294;-86
2022/03/07 15:09:40;;;;;;;;;;;;;;;2.32;53.54;100611.28;5619973;31;35179;-86
2022/03/07 15:12:42;;;;;;;;;;;;;;;2.31;53.27;100617.41;5619845;31;34518;-86
2022/03/07 15:15:45;;;;;;;;;;;;;;;2.16;54.38;100613.84;5620672;31;35749;-86
2022/03/07 15:18:49;;;;;;;;;;;;;;;2.03;53.71;100613.63;5619089;31;34415;-86
2022/03/07 15:21:55;;;;;;;;;;;;;;;2.01;53.94;100605.03;5619530;31;34682;-86
2022/03/07 15:24:58;;;;;;;;;;;;;;;2.18;53.31;100605.94;5619897;31;34439;-86
2022/03/07 15:28:07;;;;;;;;;;;;;;;1.98;54.13;100616.47;5620071;31;35544;-87
2022/03/07 15:31:14;;;;;;;;;;;;;;;1.91;54.60;100614.25;5619100;31;34665;-86
2022/03/07 15:34:17;;;;;;;;;;;;;;;2.15;52.90;100620.84;5619841;31;35581;-86
2022/03/07 15:37:22;;;;;;;;;;;;;;;1.88;53.26;100617.88;5619787;31;34095;-86
2022/03/07 15:40:27;;;;;;;;;;;;;;;1.58;54.23;100618.47;5620881;31;33908;-86
2022/03/07 15:43:30;;;;;;;;;;;;;;;1.34;55.19;100617.91;5622466;31;35023;-85
2022/03/07 15:46:33;;;;;;;;;;;;;;;1.12;55.39;100620.72;5622813;31;34858;-86
2022/03/07 15:49:36;;;;;;;;;;;;;;;1.04;55.96;100615.84;5618979;31;34489;-86
2022/03/07 15:52:41;;;;;;;;;;;;;;;1.00;55.33;100627.31;5615882;31;34605;-86
2022/03/07 15:55:44;;;;;;;;;;;;;;;0.79;56.32;100624.81;5619702;31;34406;-86